createdAt,value
2022-10-13T00:01:13.973Z,4.22
2022-10-13T00:03:47.036Z,4.18
2022-10-13T00:06:19.423Z,4.16
2022-10-13T00:08:47.039Z,4.13
2022-10-13T00:11:18.818Z,4.08
2022-10-13T00:13:47.777Z,4.03
2022-10-13T00:16:20.086Z,4.01
2022-10-13T00:18:47.728Z,3.99
2022-10-13T00:21:20.473Z,3.99
2022-10-13T00:23:48.213Z,3.99
2022-10-13T00:26:18.186Z,3.99
2022-10-13T00:28:49.788Z,3.99
2022-10-13T00:31:25.630Z,3.99
2022-10-13T00:33:53.148Z,3.99
2022-10-13T00:36:23.350Z,3.98
2022-10-13T00:38:52.399Z,3.99
2022-10-13T00:41:21.131Z,3.96
2022-10-13T00:44:04.159Z,3.91
2022-10-13T00:46:37.289Z,3.92
2022-10-13T00:49:15.160Z,3.92
2022-10-13T00:51:50.255Z,3.87
2022-10-13T00:54:25.462Z,3.87
2022-10-13T00:56:54.735Z,3.85
2022-10-13T00:59:29.360Z,3.83
2022-10-13T01:02:00.974Z,3.80
2022-10-13T01:04:39.877Z,3.82
2022-10-13T01:07:07.464Z,3.78
2022-10-13T01:09:42.379Z,3.76
2022-10-13T01:12:29.547Z,3.79
2022-10-13T01:15:41.690Z,3.80
2022-10-13T01:18:51.347Z,3.79
2022-10-13T01:22:29.625Z,3.71
2022-10-13T01:25:58.434Z,3.66
2022-10-13T01:29:11.851Z,3.63
2022-10-13T01:32:25.748Z,3.63
2022-10-13T01:35:16.362Z,3.60
2022-10-13T01:37:53.063Z,3.63
2022-10-13T01:40:34.544Z,3.60
2022-10-13T01:43:29.796Z,3.62
2022-10-13T01:46:12.437Z,3.68
2022-10-13T01:48:45.576Z,3.75
2022-10-13T01:51:22.800Z,3.81
2022-10-13T01:53:51.556Z,3.87
2022-10-13T01:56:18.732Z,3.96
2022-10-13T01:58:50.907Z,4.03
2022-10-13T02:01:47.531Z,4.09
2022-10-13T02:04:46.657Z,4.14
2022-10-13T02:07:25.970Z,4.21
2022-10-13T02:10:07.375Z,4.28
2022-10-13T02:12:44.519Z,4.35
2022-10-13T02:15:23.274Z,4.41
2022-10-13T02:17:52.765Z,4.46
2022-10-13T02:20:22.378Z,4.48
2022-10-13T02:23:02.692Z,4.46
2022-10-13T02:25:33.572Z,4.44
2022-10-13T02:28:02.740Z,4.41
2022-10-13T02:30:33.283Z,4.39
2022-10-13T02:33:03.177Z,4.35
2022-10-13T02:35:31.090Z,4.34
2022-10-13T02:37:58.015Z,4.30
2022-10-13T02:40:26.266Z,4.24
2022-10-13T02:42:53.863Z,4.18
2022-10-13T02:45:21.151Z,4.12
2022-10-13T02:47:48.135Z,4.09
2022-10-13T02:50:15.658Z,4.05
2022-10-13T02:52:42.769Z,3.98
2022-10-13T02:55:10.596Z,3.95
2022-10-13T02:57:37.500Z,3.95
2022-10-13T03:00:08.005Z,3.94
2022-10-13T03:02:35.227Z,3.93
2022-10-13T03:05:02.249Z,3.93
2022-10-13T03:07:29.194Z,3.94
2022-10-13T03:09:56.458Z,3.94
2022-10-13T03:12:23.863Z,3.93
2022-10-13T03:14:50.964Z,3.90
2022-10-13T03:17:18.530Z,3.88
2022-10-13T03:19:45.598Z,3.94
2022-10-13T03:22:15.427Z,3.92
2022-10-13T03:24:43.257Z,3.89
2022-10-13T03:27:10.883Z,3.86
2022-10-13T03:29:37.954Z,3.85
2022-10-13T03:32:05.240Z,3.86
2022-10-13T03:34:32.242Z,3.87
2022-10-13T03:36:59.263Z,3.83
2022-10-13T03:39:26.411Z,3.80
2022-10-13T03:41:53.340Z,3.80
2022-10-13T03:44:20.419Z,3.77
2022-10-13T03:46:47.424Z,3.75
2022-10-13T03:49:14.514Z,3.74
2022-10-13T03:51:41.572Z,3.74
2022-10-13T03:54:12.984Z,3.74
2022-10-13T03:56:41.281Z,3.74
2022-10-13T03:59:11.114Z,3.75
2022-10-13T04:01:38.077Z,3.77
2022-10-13T04:04:05.568Z,3.77
2022-10-13T04:06:32.532Z,3.79
2022-10-13T04:08:59.477Z,3.83
2022-10-13T04:11:26.582Z,3.87
2022-10-13T04:13:53.570Z,3.93
2022-10-13T04:16:26.148Z,3.94
2022-10-13T04:19:05.030Z,3.98
2022-10-13T04:21:34.921Z,4.04
2022-10-13T04:24:03.467Z,4.10
2022-10-13T04:26:35.608Z,4.10
2022-10-13T04:29:06.783Z,4.08
2022-10-13T04:31:35.848Z,4.08
2022-10-13T04:34:03.092Z,4.10
2022-10-13T04:36:30.394Z,4.10
2022-10-13T04:38:57.451Z,4.12
2022-10-13T04:41:24.499Z,4.17
2022-10-13T04:43:54.408Z,4.18
2022-10-13T04:46:27.042Z,4.20
2022-10-13T04:48:55.572Z,4.22
2022-10-13T04:51:26.412Z,4.25
2022-10-13T04:54:02.062Z,4.30
2022-10-13T04:56:29.241Z,4.33
2022-10-13T04:58:56.283Z,4.37
2022-10-13T05:01:25.816Z,4.38
2022-10-13T05:04:00.236Z,4.39
2022-10-13T05:06:35.737Z,4.36
2022-10-13T05:09:04.063Z,4.35
2022-10-13T05:11:32.687Z,4.37
2022-10-13T05:14:01.851Z,4.37
2022-10-13T05:16:31.064Z,4.41
2022-10-13T05:18:58.184Z,4.46
2022-10-13T05:21:29.718Z,4.47
2022-10-13T05:23:58.451Z,4.46
2022-10-13T05:26:32.029Z,4.48
2022-10-13T05:29:02.275Z,4.53
2022-10-13T05:31:32.595Z,4.54
2022-10-13T05:34:00.892Z,4.55
2022-10-13T05:36:33.315Z,4.54
2022-10-13T05:39:06.039Z,4.56
2022-10-13T05:41:33.974Z,4.60
2022-10-13T05:44:07.163Z,4.62
2022-10-13T05:46:34.364Z,4.64
2022-10-13T05:49:01.449Z,4.67
2022-10-13T05:51:41.947Z,4.69
2022-10-13T05:54:15.228Z,4.69
2022-10-13T05:56:57.133Z,4.72
2022-10-13T05:59:32.612Z,4.74
2022-10-13T06:02:03.192Z,4.77
2022-10-13T06:04:49.255Z,4.78
2022-10-13T06:07:17.537Z,4.77
2022-10-13T06:09:44.919Z,4.78
2022-10-13T06:12:15.485Z,4.79
2022-10-13T06:14:42.397Z,4.79
2022-10-13T06:17:09.322Z,4.82
2022-10-13T06:19:36.587Z,4.86
2022-10-13T06:22:03.991Z,4.88
2022-10-13T06:24:31.724Z,4.89
2022-10-13T06:26:58.799Z,4.89
2022-10-13T06:29:25.825Z,4.92
2022-10-13T06:31:52.794Z,4.97
2022-10-13T06:34:19.733Z,4.98
2022-10-13T06:36:47.271Z,4.99
2022-10-13T06:39:14.554Z,5.02
2022-10-13T06:41:41.500Z,5.06
2022-10-13T06:44:08.460Z,5.10
2022-10-13T06:46:35.403Z,5.19
2022-10-13T06:49:02.373Z,5.27
2022-10-13T06:51:29.351Z,5.35
2022-10-13T06:53:57.625Z,5.44
2022-10-13T06:56:24.734Z,5.53
2022-10-13T06:58:51.678Z,5.60
2022-10-13T07:01:18.713Z,5.67
2022-10-13T07:03:52.187Z,5.71
2022-10-13T07:06:19.577Z,5.76
2022-10-13T07:08:46.774Z,5.78
2022-10-13T07:11:16.680Z,5.81
2022-10-13T07:13:46.840Z,5.87
2022-10-13T07:16:15.463Z,5.91
2022-10-13T07:18:42.747Z,5.96
2022-10-13T07:21:09.982Z,6.01
2022-10-13T07:23:36.933Z,6.13
2022-10-13T07:26:14.556Z,6.38
2022-10-13T07:28:44.100Z,6.66
2022-10-13T07:31:18.214Z,7.00
2022-10-13T07:33:51.102Z,7.04
2022-10-13T07:36:19.545Z,7.24
2022-10-13T07:38:47.319Z,7.33
2022-10-13T07:41:15.996Z,7.33
2022-10-13T07:43:43.422Z,7.42
2022-10-13T07:46:15.445Z,7.75
2022-10-13T07:48:42.490Z,8.02
2022-10-13T07:51:13.735Z,8.39
2022-10-13T07:53:43.162Z,8.70
2022-10-13T07:56:15.602Z,9.10
2022-10-13T07:58:47.449Z,9.28
2022-10-13T08:01:16.882Z,9.60
2022-10-13T08:03:48.976Z,9.85
2022-10-13T08:06:17.841Z,10.17
2022-10-13T08:08:44.826Z,10.32
2022-10-13T08:11:17.352Z,10.57
2022-10-13T08:13:52.243Z,10.71
2022-10-13T08:16:19.617Z,10.70
2022-10-13T08:18:48.732Z,10.70
2022-10-13T08:24:12.613Z,10.99
2022-10-13T08:26:41.224Z,11.36
2022-10-13T08:29:24.327Z,11.67
2022-10-13T08:31:56.211Z,11.95
2022-10-13T08:34:26.096Z,11.89
2022-10-13T08:36:56.461Z,11.79
2022-10-13T08:39:25.315Z,11.70
2022-10-13T08:41:55.467Z,11.80
2022-10-13T08:47:48.496Z,11.91
2022-10-13T08:50:24.119Z,12.19
2022-10-13T08:53:00.572Z,12.24
2022-10-13T08:55:46.623Z,12.14
2022-10-13T08:58:32.421Z,12.30
2022-10-13T09:01:18.263Z,12.37
2022-10-13T09:04:23.902Z,11.87
2022-10-13T09:07:40.870Z,12.28
2022-10-13T09:10:10.192Z,12.47
2022-10-13T09:12:37.616Z,12.33
2022-10-13T09:15:14.460Z,12.35
2022-10-13T09:17:42.585Z,12.40
2022-10-13T09:20:27.812Z,12.37
2022-10-13T09:23:22.732Z,12.40
2022-10-13T09:25:54.241Z,12.38
2022-10-13T09:28:29.697Z,12.55
2022-10-13T09:31:28.030Z,12.74
2022-10-13T09:34:22.652Z,12.78
2022-10-13T09:37:06.789Z,12.80
2022-10-13T09:39:34.983Z,12.85
2022-10-13T09:42:32.790Z,12.96
2022-10-13T09:45:15.498Z,12.97
2022-10-13T09:48:13.012Z,13.08
2022-10-13T09:50:53.574Z,13.09
2022-10-13T09:53:40.675Z,13.10
2022-10-13T09:56:28.882Z,13.15
2022-10-13T09:59:33.619Z,13.14
2022-10-13T10:02:26.599Z,13.32
2022-10-13T10:05:05.983Z,13.38
2022-10-13T10:07:33.893Z,13.55
2022-10-13T10:10:22.948Z,13.54
2022-10-13T10:12:51.494Z,13.65
2022-10-13T10:15:39.990Z,13.78
2022-10-13T10:18:42.398Z,14.34
2022-10-13T10:21:31.429Z,14.52
2022-10-13T10:24:27.783Z,14.17
2022-10-13T10:27:24.499Z,13.80
2022-10-13T10:30:05.121Z,13.74
2022-10-13T10:33:11.739Z,13.81
2022-10-13T10:35:52.145Z,13.90
2022-10-13T10:39:07.580Z,13.93
2022-10-13T10:42:15.925Z,13.73
2022-10-13T10:44:50.971Z,13.94
2022-10-13T10:47:48.787Z,14.13
2022-10-13T10:50:19.185Z,14.36
2022-10-13T10:53:18.850Z,14.57
2022-10-13T10:56:29.580Z,14.84
2022-10-13T10:59:55.344Z,15.01
2022-10-13T11:02:52.113Z,15.12
2022-10-13T11:05:20.093Z,14.85
2022-10-13T11:07:47.118Z,15.13
2022-10-13T11:10:14.079Z,15.30
2022-10-13T11:12:51.076Z,15.30
2022-10-13T11:15:42.405Z,15.20
2022-10-13T11:18:59.080Z,15.20
2022-10-13T11:21:26.269Z,15.24
2022-10-13T11:23:54.801Z,15.14
2022-10-13T11:26:26.056Z,14.97
2022-10-13T11:28:53.493Z,15.29
2022-10-13T11:31:47.447Z,15.47
2022-10-13T11:34:32.118Z,15.57
2022-10-13T11:37:03.206Z,15.53
2022-10-13T11:40:23.486Z,15.60
2022-10-13T11:43:55.246Z,15.76
2022-10-13T11:47:00.217Z,15.86
2022-10-13T11:49:45.691Z,16.10
2022-10-13T11:53:10.755Z,16.16
2022-10-13T11:55:57.999Z,15.83
2022-10-13T11:58:30.270Z,15.83
2022-10-13T12:01:19.255Z,15.97
2022-10-13T12:03:47.826Z,16.01
2022-10-13T12:06:34.229Z,16.04
2022-10-13T12:09:20.977Z,15.95
2022-10-13T12:12:15.447Z,15.99
2022-10-13T12:14:50.754Z,15.90
2022-10-13T12:17:27.459Z,15.59
2022-10-13T12:20:01.834Z,15.75
2022-10-13T12:22:30.239Z,15.91
2022-10-13T12:25:01.062Z,15.99
2022-10-13T12:27:39.842Z,16.11
2022-10-13T12:30:24.672Z,16.26
2022-10-13T12:32:59.473Z,16.43
2022-10-13T12:35:34.187Z,16.19
2022-10-13T12:38:19.590Z,16.18
2022-10-13T12:40:51.678Z,16.02
2022-10-13T12:43:25.883Z,15.82
2022-10-13T12:45:53.656Z,15.55
2022-10-13T12:48:35.027Z,15.52
2022-10-13T12:51:24.597Z,15.45
2022-10-13T12:53:51.814Z,15.38
2022-10-13T12:56:31.889Z,15.43
2022-10-13T12:59:01.051Z,15.54
2022-10-13T13:01:35.252Z,15.44
2022-10-13T13:04:41.246Z,15.61
2022-10-13T13:07:37.561Z,15.62
2022-10-13T13:10:19.662Z,15.75
2022-10-13T13:12:51.012Z,15.50
2022-10-13T13:15:41.764Z,15.60
2022-10-13T13:18:27.011Z,15.62
2022-10-13T13:20:55.000Z,15.67
2022-10-13T13:23:23.726Z,15.71
2022-10-13T13:26:03.291Z,15.43
2022-10-13T13:28:32.985Z,15.34
2022-10-13T13:31:00.484Z,15.31
2022-10-13T13:33:27.575Z,15.35
2022-10-13T13:35:55.071Z,15.30
2022-10-13T13:38:22.200Z,15.29
2022-10-13T13:40:49.229Z,15.40
2022-10-13T13:43:16.171Z,15.44
2022-10-13T13:45:45.079Z,15.42
2022-10-13T13:48:13.391Z,15.44
2022-10-13T13:50:40.963Z,15.36
2022-10-13T13:53:08.083Z,15.57
2022-10-13T13:55:35.962Z,15.59
2022-10-13T13:58:02.976Z,15.76
2022-10-13T14:00:30.176Z,16.02
2022-10-13T14:02:58.391Z,16.42
2022-10-13T14:05:25.776Z,17.07
2022-10-13T14:07:58.119Z,17.15
2022-10-13T14:10:26.859Z,17.54
2022-10-13T14:12:54.177Z,17.66
2022-10-13T14:15:23.425Z,17.84
2022-10-13T14:17:54.795Z,17.66
2022-10-13T14:20:23.002Z,17.48
2022-10-13T14:22:50.655Z,17.03
2022-10-13T14:25:17.796Z,16.60
2022-10-13T14:27:45.908Z,16.27
2022-10-13T14:30:15.020Z,15.99
2022-10-13T14:32:42.320Z,15.84
2022-10-13T14:35:09.525Z,15.66
2022-10-13T14:37:36.805Z,15.68
2022-10-13T14:40:04.769Z,15.47
2022-10-13T14:42:31.661Z,15.31
2022-10-13T14:44:58.619Z,15.27
2022-10-13T14:47:25.733Z,15.30
2022-10-13T14:49:52.728Z,15.43
2022-10-13T14:52:19.787Z,15.55
2022-10-13T14:54:46.761Z,15.56
2022-10-13T14:57:16.166Z,15.62
2022-10-13T14:59:44.592Z,15.52
2022-10-13T15:02:13.288Z,15.46
2022-10-13T15:04:40.676Z,15.28
2022-10-13T15:07:07.874Z,15.15
2022-10-13T15:09:52.228Z,15.01
2022-10-13T15:12:23.038Z,14.81
2022-10-13T15:14:50.245Z,14.60
2022-10-13T15:17:17.199Z,14.43
2022-10-13T15:19:44.139Z,14.24
2022-10-13T15:22:11.069Z,14.02
2022-10-13T15:24:37.998Z,13.85
2022-10-13T15:27:04.935Z,13.66
2022-10-13T15:29:31.935Z,13.51
2022-10-13T15:32:18.056Z,13.30
2022-10-13T15:34:45.879Z,13.12
2022-10-13T15:37:13.347Z,12.96
2022-10-13T15:39:40.265Z,12.90
2022-10-13T15:42:12.708Z,12.79
2022-10-13T15:45:08.295Z,12.68
2022-10-13T15:47:26.994Z,12.59
2022-10-13T15:49:54.388Z,12.55
2022-10-13T15:52:21.579Z,12.49
2022-10-13T15:54:51.523Z,12.45
2022-10-13T15:57:18.893Z,12.43
2022-10-13T15:59:45.910Z,12.40
2022-10-13T16:02:12.965Z,12.37
2022-10-13T16:04:40.348Z,12.33
2022-10-13T16:07:07.333Z,12.26
2022-10-13T16:09:34.526Z,12.18
2022-10-13T16:12:01.917Z,12.13
2022-10-13T16:14:28.992Z,12.02
2022-10-13T16:16:58.541Z,11.93
2022-10-13T16:19:25.598Z,11.86
2022-10-13T16:21:52.830Z,11.74
2022-10-13T16:24:19.935Z,11.65
2022-10-13T16:26:46.896Z,11.58
2022-10-13T16:29:13.882Z,11.45
2022-10-13T16:31:40.956Z,11.33
2022-10-13T16:34:07.927Z,11.25
2022-10-13T16:36:34.920Z,11.13
2022-10-13T16:39:02.004Z,11.04
2022-10-13T16:41:29.056Z,10.96
2022-10-13T16:43:56.065Z,10.89
2022-10-13T16:46:23.114Z,10.83
2022-10-13T16:48:50.240Z,10.79
2022-10-13T16:51:26.371Z,10.73
2022-10-13T16:54:03.915Z,10.70
2022-10-13T16:56:32.270Z,10.66
2022-10-13T16:59:06.793Z,10.60
2022-10-13T17:01:36.500Z,10.56
2022-10-13T17:04:04.986Z,10.50
2022-10-13T17:06:32.911Z,10.49
2022-10-13T17:09:03.411Z,10.52
2022-10-13T17:11:34.812Z,10.50
2022-10-13T17:14:02.405Z,10.46
2022-10-13T17:16:31.383Z,10.39
2022-10-13T17:18:58.483Z,10.38
2022-10-13T17:21:25.453Z,10.38
2022-10-13T17:23:54.852Z,10.34
2022-10-13T17:26:21.821Z,10.29
2022-10-13T17:28:49.005Z,10.30
2022-10-13T17:31:23.815Z,10.27
2022-10-13T17:33:52.956Z,10.23
2022-10-13T17:36:28.128Z,10.24
2022-10-13T17:39:01.594Z,10.18
2022-10-13T17:41:28.520Z,10.14
2022-10-13T17:43:55.559Z,10.06
2022-10-13T17:46:36.701Z,10.02
2022-10-13T17:49:07.733Z,9.98
2022-10-13T17:51:35.142Z,9.92
2022-10-13T17:54:02.232Z,9.88
2022-10-13T17:56:30.086Z,9.82
2022-10-13T17:58:57.396Z,9.75
2022-10-13T18:01:34.894Z,9.73
2022-10-13T18:04:11.298Z,9.65
2022-10-13T18:06:44.055Z,9.55
2022-10-13T18:09:23.314Z,9.54
2022-10-13T18:11:52.397Z,9.49
2022-10-13T18:14:25.297Z,9.44
2022-10-13T18:16:53.446Z,9.35
2022-10-13T18:19:22.394Z,9.28
2022-10-13T18:21:50.707Z,9.23
2022-10-13T18:24:17.820Z,9.21
2022-10-13T18:26:46.307Z,9.15
2022-10-13T18:29:14.087Z,9.10
2022-10-13T18:31:42.803Z,9.09
2022-10-13T18:34:17.134Z,9.09
2022-10-13T18:36:52.872Z,9.08
2022-10-13T18:39:29.021Z,9.11
2022-10-13T18:41:57.953Z,9.12
2022-10-13T18:44:25.256Z,9.11
2022-10-13T18:46:56.375Z,9.07
2022-10-13T18:49:31.115Z,9.04
2022-10-13T18:52:00.702Z,9.06
2022-10-13T18:54:30.237Z,9.05
2022-10-13T18:56:57.574Z,9.03
2022-10-13T18:59:24.736Z,9.01
2022-10-13T19:01:51.923Z,8.99
2022-10-13T19:04:19.082Z,8.97
2022-10-13T19:06:46.585Z,8.93
2022-10-13T19:09:17.512Z,8.92
2022-10-13T19:11:44.663Z,8.89
2022-10-13T19:14:13.913Z,8.83
2022-10-13T19:16:44.221Z,8.79
2022-10-13T19:19:12.668Z,8.76
2022-10-13T19:21:41.130Z,8.75
2022-10-13T19:24:10.055Z,8.74
2022-10-13T19:26:38.532Z,8.73
2022-10-13T19:29:13.960Z,8.73
2022-10-13T19:31:43.367Z,8.72
2022-10-13T19:34:13.616Z,8.68
2022-10-13T19:36:46.168Z,8.65
2022-10-13T19:39:22.948Z,8.60
2022-10-13T19:41:54.860Z,8.54
2022-10-13T19:44:24.792Z,8.50
2022-10-13T19:46:53.676Z,8.46
2022-10-13T19:49:26.037Z,8.45
2022-10-13T19:51:54.217Z,8.42
2022-10-13T19:54:22.345Z,8.39
2022-10-13T19:56:50.978Z,8.34
2022-10-13T19:59:19.163Z,8.33
2022-10-13T20:01:47.295Z,8.34
2022-10-13T20:04:18.684Z,8.29
2022-10-13T20:06:47.474Z,8.26
2022-10-13T20:09:15.406Z,8.22
2022-10-13T20:11:47.068Z,8.19
2022-10-13T20:14:15.022Z,8.10
2022-10-13T20:16:42.439Z,8.07
2022-10-13T20:19:16.267Z,8.06
2022-10-13T20:21:43.226Z,8.05
2022-10-13T20:24:10.217Z,8.02
2022-10-13T20:26:37.600Z,7.99
2022-10-13T20:29:04.646Z,7.93
2022-10-13T20:31:31.725Z,7.91
2022-10-13T20:33:59.607Z,7.90
2022-10-13T20:36:28.262Z,7.87
2022-10-13T20:38:55.641Z,7.82
2022-10-13T20:41:28.666Z,7.82
2022-10-13T20:44:00.310Z,7.76
2022-10-13T20:46:27.890Z,7.73
2022-10-13T20:49:10.509Z,7.70
2022-10-13T20:51:38.892Z,7.65
2022-10-13T20:54:06.257Z,7.63
2022-10-13T20:56:34.075Z,7.67
2022-10-13T20:59:14.616Z,7.67
2022-10-13T21:01:42.362Z,7.65
2022-10-13T21:04:09.805Z,7.61
2022-10-13T21:06:37.489Z,7.63
2022-10-13T21:09:07.633Z,7.65
2022-10-13T21:11:36.307Z,7.64
2022-10-13T21:14:06.853Z,7.61
2022-10-13T21:16:35.056Z,7.60
2022-10-13T21:19:03.666Z,7.62
2022-10-13T21:21:34.821Z,7.62
2022-10-13T21:24:07.433Z,7.60
2022-10-13T21:26:36.080Z,7.56
2022-10-13T21:29:04.002Z,7.56
2022-10-13T21:31:31.366Z,7.54
2022-10-13T21:33:58.586Z,7.51
2022-10-13T21:36:32.445Z,7.46
2022-10-13T21:39:05.338Z,7.41
2022-10-13T21:41:32.331Z,7.38
2022-10-13T21:43:59.668Z,7.34
2022-10-13T21:46:31.785Z,7.33
2022-10-13T21:49:03.707Z,7.28
2022-10-13T21:51:39.354Z,7.27
2022-10-13T21:54:13.480Z,7.24
2022-10-13T21:56:42.465Z,7.22
2022-10-13T21:59:13.412Z,7.18
2022-10-13T22:01:41.731Z,7.14
2022-10-13T22:04:13.971Z,7.12
2022-10-13T22:06:41.119Z,7.10
2022-10-13T22:09:08.366Z,7.09
2022-10-13T22:11:39.396Z,6.96
2022-10-13T22:14:07.925Z,6.91
2022-10-13T22:16:55.117Z,6.84
2022-10-13T22:19:23.137Z,6.80
2022-10-13T22:21:51.244Z,6.76
2022-10-13T22:24:21.909Z,6.71
2022-10-13T22:26:50.698Z,6.70
2022-10-13T22:29:24.092Z,6.65
2022-10-13T22:31:57.464Z,6.63
2022-10-13T22:34:25.079Z,6.63
2022-10-13T22:36:52.498Z,6.63
2022-10-13T22:39:19.463Z,6.62
2022-10-13T22:41:46.836Z,6.62
2022-10-13T22:44:14.909Z,6.61
2022-10-13T22:46:41.850Z,6.58
2022-10-13T22:49:11.226Z,6.57
2022-10-13T22:51:38.373Z,6.52
2022-10-13T22:54:06.787Z,6.54
2022-10-13T22:56:35.380Z,6.51
2022-10-13T22:59:08.752Z,6.47
2022-10-13T23:01:37.200Z,6.46
2022-10-13T23:04:04.943Z,6.34
2022-10-13T23:06:35.558Z,6.31
2022-10-13T23:09:07.911Z,6.31
2022-10-13T23:11:35.087Z,6.26
2022-10-13T23:14:02.973Z,6.26
2022-10-13T23:16:31.500Z,6.23
2022-10-13T23:18:58.787Z,6.19
2022-10-13T23:21:29.637Z,6.20
2022-10-13T23:24:06.315Z,6.16
2022-10-13T23:26:35.748Z,6.15
2022-10-13T23:29:05.162Z,6.14
2022-10-13T23:31:32.433Z,6.15
2022-10-13T23:33:59.643Z,6.12
2022-10-13T23:36:32.153Z,6.14
2022-10-13T23:39:07.159Z,6.12
2022-10-13T23:41:34.853Z,6.11
2022-10-13T23:44:01.869Z,6.08
2022-10-13T23:46:29.083Z,6.04
2022-10-13T23:48:56.854Z,5.99
2022-10-13T23:51:26.553Z,5.96
2022-10-13T23:53:55.152Z,5.96
2022-10-13T23:56:23.530Z,5.95
2022-10-13T23:58:51.400Z,5.95
